Time;durP1;ratioP1;P1;durP2;ratioP2;P2;SDS_P1;SDS_P2;PMS_P1;PMS_P2;Temp;Humidity;BMP_temperature;BMP_pressure;BME280_temperature;BME280_humidity;BME280_pressure;Samples;Min_cycle;Max_cycle;Signal;HPM_P1;HPM_P2
2021/10/17 00:00:12;;;;;;;3.33;2.08;;;13.50;71.00;;;;;;4866481;29;20478;-79
2021/10/17 00:02:39;;;;;;;2.75;2.13;;;13.50;71.00;;;;;;4882196;29;20367;-79
2021/10/17 00:05:08;;;;;;;2.90;2.00;;;13.50;71.00;;;;;;4866482;29;20027;-79
2021/10/17 00:07:34;;;;;;;4.15;2.38;;;13.50;71.00;;;;;;4913011;29;20486;-79
2021/10/17 00:10:00;;;;;;;2.72;2.20;;;13.50;71.00;;;;;;4898831;29;20071;-79
2021/10/17 00:12:26;;;;;;;3.47;2.38;;;13.50;71.00;;;;;;4881725;29;20033;-79
2021/10/17 00:14:52;;;;;;;3.67;2.58;;;13.50;71.00;;;;;;4881760;29;20032;-80
2021/10/17 00:17:18;;;;;;;4.18;2.47;;;13.50;71.00;;;;;;4881820;29;20033;-79
2021/10/17 00:19:43;;;;;;;3.85;2.35;;;13.50;71.00;;;;;;4881433;29;20382;-79
2021/10/17 00:22:10;;;;;;;3.55;2.30;;;13.50;71.10;;;;;;4897157;29;20072;-79
2021/10/17 00:24:36;;;;;;;3.60;2.30;;;13.50;71.00;;;;;;4882279;29;20037;-80
2021/10/17 00:27:02;;;;;;;4.03;2.50;;;13.50;71.00;;;;;;4882214;29;20029;-79
2021/10/17 00:29:28;;;;;;;4.47;2.20;;;13.50;71.00;;;;;;4881605;29;20037;-80
2021/10/17 00:31:53;;;;;;;4.07;2.40;;;13.50;71.00;;;;;;4881404;29;20036;-79
2021/10/17 00:34:19;;;;;;;4.55;2.50;;;13.50;71.00;;;;;;4881202;29;20047;-80
2021/10/17 00:36:47;;;;;;;4.18;2.45;;;13.50;71.00;;;;;;4881428;29;20025;-79
2021/10/17 00:39:12;;;;;;;3.72;2.35;;;13.50;71.00;;;;;;4896775;29;20043;-79
2021/10/17 00:41:38;;;;;;;4.88;2.50;;;13.50;71.10;;;;;;4882131;29;20402;-80
2021/10/17 00:44:04;;;;;;;3.10;2.15;;;13.40;71.00;;;;;;4881635;29;20462;-79
2021/10/17 00:46:30;;;;;;;3.95;2.28;;;13.50;71.10;;;;;;4881372;29;20430;-79
2021/10/17 00:48:56;;;;;;;3.03;2.00;;;13.50;71.10;;;;;;4865318;29;20032;-79
2021/10/17 00:51:22;;;;;;;3.00;2.17;;;13.40;71.00;;;;;;4897176;29;20037;-80
2021/10/17 00:53:48;;;;;;;3.47;2.30;;;13.40;71.00;;;;;;4898134;29;20058;-79
2021/10/17 00:56:14;;;;;;;3.47;2.08;;;13.40;71.00;;;;;;4866630;29;20106;-79
2021/10/17 00:58:40;;;;;;;3.85;2.28;;;13.40;71.10;;;;;;4881272;29;20111;-79
2021/10/17 01:01:06;;;;;;;3.80;2.28;;;13.40;71.00;;;;;;4866561;29;20044;-79
2021/10/17 01:03:31;;;;;;;3.05;2.08;;;13.40;71.10;;;;;;4885370;29;20352;-79
2021/10/17 01:05:57;;;;;;;3.22;2.33;;;13.40;71.10;;;;;;4901481;29;20040;-80
2021/10/17 01:08:24;;;;;;;4.13;2.45;;;13.40;71.10;;;;;;4884634;29;20037;-79
2021/10/17 01:10:55;;;;;;;3.97;2.28;;;13.40;71.10;;;;;;4900611;29;20028;-80
2021/10/17 01:13:22;;;;;;;3.45;2.15;;;13.40;71.20;;;;;;4869131;29;20505;-79
2021/10/17 01:15:56;;;;;;;2.53;2.03;;;13.40;71.10;;;;;;4901310;29;20032;-79
2021/10/17 01:18:28;;;;;;;4.22;2.25;;;13.40;71.20;;;;;;4915816;29;20039;-79
2021/10/17 01:20:58;;;;;;;3.55;2.30;;;13.40;71.10;;;;;;4869775;29;20079;-79
2021/10/17 01:23:24;;;;;;;3.13;2.20;;;13.40;71.10;;;;;;4885070;29;20040;-79
2021/10/17 01:25:51;;;;;;;3.92;2.47;;;13.40;71.20;;;;;;4884661;29;20027;-79
2021/10/17 01:28:17;;;;;;;4.07;2.38;;;13.40;71.10;;;;;;4884578;29;20032;-79
2021/10/17 01:30:43;;;;;;;3.85;2.40;;;13.40;71.20;;;;;;4915811;29;20131;-79
2021/10/17 01:33:10;;;;;;;5.20;2.50;;;13.40;71.20;;;;;;4884236;29;20152;-80
2021/10/17 01:35:36;;;;;;;3.28;2.20;;;13.40;71.20;;;;;;4869493;29;20029;-79
2021/10/17 01:38:03;;;;;;;3.38;2.08;;;13.40;71.20;;;;;;4868619;29;20062;-79
2021/10/17 01:40:29;;;;;;;4.35;2.90;;;13.40;71.20;;;;;;4884213;29;20049;-79
2021/10/17 01:42:57;;;;;;;3.22;2.30;;;13.40;71.20;;;;;;4884787;29;20071;-80
2021/10/17 01:45:24;;;;;;;3.40;2.17;;;13.40;71.20;;;;;;4899987;29;20040;-79
2021/10/17 01:47:51;;;;;;;4.85;2.65;;;13.40;71.20;;;;;;4868719;29;20091;-79
2021/10/17 01:50:20;;;;;;;2.95;2.03;;;13.30;71.20;;;;;;4884091;29;20123;-79
2021/10/17 01:52:47;;;;;;;3.33;1.92;;;13.30;71.20;;;;;;4868903;29;20033;-79
2021/10/17 01:55:13;;;;;;;3.78;2.17;;;13.30;71.20;;;;;;4883915;29;20048;-79
2021/10/17 01:57:40;;;;;;;3.13;2.08;;;13.30;71.20;;;;;;4884225;29;20032;-79
2021/10/17 02:00:08;;;;;;;2.65;1.90;;;13.30;71.20;;;;;;4885174;29;20041;-80
2021/10/17 02:02:42;;;;;;;3.90;2.20;;;13.30;71.20;;;;;;4902026;29;20072;-79
2021/10/17 02:05:16;;;;;;;4.15;2.10;;;13.30;71.10;;;;;;4872588;29;20035;-80
2021/10/17 02:07:44;;;;;;;3.58;2.33;;;13.30;71.20;;;;;;4903365;29;20453;-79
2021/10/17 02:10:10;;;;;;;4.20;2.47;;;13.30;71.20;;;;;;4899423;29;20025;-78
2021/10/17 02:12:36;;;;;;;3.00;2.20;;;13.30;71.20;;;;;;4899410;29;20066;-79
2021/10/17 02:15:05;;;;;;;3.30;2.13;;;13.30;71.20;;;;;;4883958;29;20094;-80
2021/10/17 02:17:31;;;;;;;4.55;2.17;;;13.30;71.20;;;;;;4899859;29;20032;-79
2021/10/17 02:19:59;;;;;;;4.05;2.28;;;13.30;71.20;;;;;;4899236;29;20447;-80
2021/10/17 02:22:27;;;;;;;4.40;2.20;;;13.30;71.20;;;;;;4883447;29;20442;-79
2021/10/17 02:24:53;;;;;;;2.88;2.00;;;13.30;71.20;;;;;;4883790;29;20399;-79
2021/10/17 02:27:19;;;;;;;2.63;1.90;;;13.30;71.20;;;;;;4867789;29;20067;-78
2021/10/17 02:29:49;;;;;;;3.15;1.98;;;13.30;71.20;;;;;;4868997;29;20036;-79
2021/10/17 02:32:35;;;;;;;3.83;2.30;;;13.30;71.20;;;;;;4885836;29;20500;-79
2021/10/17 02:35:10;;;;;;;2.78;2.00;;;13.30;71.20;;;;;;4869390;29;20390;-80
2021/10/17 02:37:36;;;;;;;3.67;2.67;;;13.30;71.20;;;;;;4867782;29;20056;-79
2021/10/17 02:40:03;;;;;;;2.72;1.98;;;13.20;71.20;;;;;;4867643;29;20036;-80
2021/10/17 02:42:29;;;;;;;3.65;2.20;;;13.30;71.20;;;;;;4898575;29;20037;-79
2021/10/17 02:44:55;;;;;;;2.95;2.20;;;13.30;71.20;;;;;;4867585;29;20028;-79
2021/10/17 02:47:24;;;;;;;4.70;2.65;;;13.20;71.20;;;;;;4882941;29;20557;-79
2021/10/17 02:49:50;;;;;;;4.90;2.60;;;13.30;71.30;;;;;;4882945;29;20124;-79
2021/10/17 02:52:18;;;;;;;3.38;2.00;;;13.30;71.30;;;;;;4868394;29;20498;-79
2021/10/17 02:54:44;;;;;;;3.38;2.30;;;13.20;71.20;;;;;;4868181;29;20063;-79
2021/10/17 02:57:10;;;;;;;3.13;2.05;;;13.20;71.20;;;;;;4867327;29;20064;-79
2021/10/17 02:59:36;;;;;;;3.20;2.35;;;13.20;71.20;;;;;;4867378;29;20064;-79
2021/10/17 03:02:03;;;;;;;3.60;2.22;;;13.20;71.20;;;;;;4883379;29;20390;-80
2021/10/17 03:04:29;;;;;;;3.75;2.38;;;13.20;71.20;;;;;;4867384;29;20033;-79
2021/10/17 03:06:57;;;;;;;3.35;2.25;;;13.20;71.30;;;;;;4882512;29;20039;-79
2021/10/17 03:09:23;;;;;;;3.38;2.10;;;13.20;71.20;;;;;;4882428;29;20032;-80
2021/10/17 03:11:50;;;;;;;4.68;2.08;;;13.20;71.30;;;;;;4898268;29;20096;-79
2021/10/17 03:14:16;;;;;;;3.67;2.20;;;13.20;71.30;;;;;;4882415;29;20067;-79
2021/10/17 03:16:42;;;;;;;3.08;2.15;;;13.20;71.30;;;;;;4898152;29;20033;-80
2021/10/17 03:19:09;;;;;;;3.95;2.25;;;13.20;71.30;;;;;;4882062;29;20060;-80
2021/10/17 03:21:35;;;;;;;3.70;2.63;;;13.20;71.30;;;;;;4866803;29;20055;-80
2021/10/17 03:24:02;;;;;;;4.97;2.65;;;13.20;71.30;;;;;;4882223;29;20036;-80
2021/10/17 03:26:27;;;;;;;4.18;2.30;;;13.20;71.30;;;;;;4881897;29;20049;-79
2021/10/17 03:28:53;;;;;;;4.57;2.47;;;13.20;71.30;;;;;;4882937;29;20458;-80
2021/10/17 03:31:19;;;;;;;3.72;2.35;;;13.20;71.30;;;;;;4882116;29;20032;-80
2021/10/17 03:33:47;;;;;;;3.05;2.00;;;13.20;71.30;;;;;;4882306;29;20047;-79
2021/10/17 03:36:16;;;;;;;3.95;2.30;;;13.20;71.30;;;;;;4867246;29;20025;-80
2021/10/17 03:38:42;;;;;;;3.60;2.30;;;13.20;71.30;;;;;;4882298;29;20442;-79
2021/10/17 03:41:13;;;;;;;3.65;2.42;;;13.20;71.30;;;;;;4867537;29;20033;-79
2021/10/17 03:43:43;;;;;;;4.10;2.58;;;13.20;71.30;;;;;;4883087;29;20048;-79
2021/10/17 03:46:09;;;;;;;4.90;2.45;;;13.20;71.30;;;;;;4882363;29;20538;-79
2021/10/17 03:48:37;;;;;;;3.25;2.30;;;13.10;71.30;;;;;;4866750;29;20454;-79
2021/10/17 03:51:09;;;;;;;2.90;2.28;;;13.20;71.40;;;;;;4884607;29;20072;-79
2021/10/17 03:53:36;;;;;;;3.75;2.65;;;13.10;71.30;;;;;;4881866;29;20040;-80
2021/10/17 03:56:02;;;;;;;3.83;2.42;;;13.10;71.30;;;;;;4867441;29;20032;-79
2021/10/17 03:58:28;;;;;;;3.67;2.25;;;13.20;71.30;;;;;;4866374;29;20036;-79
2021/10/17 04:00:53;;;;;;;3.28;2.22;;;13.10;71.30;;;;;;4898061;29;20040;-79
2021/10/17 04:03:20;;;;;;;5.47;2.33;;;13.10;71.30;;;;;;4897462;29;20029;-79
2021/10/17 04:05:49;;;;;;;3.78;2.40;;;13.10;71.30;;;;;;4881449;29;20041;-78
2021/10/17 04:08:15;;;;;;;3.83;2.35;;;13.10;71.30;;;;;;4866427;29;20048;-80
2021/10/17 04:10:41;;;;;;;4.00;2.47;;;13.10;71.40;;;;;;4881633;29;20037;-79
2021/10/17 04:13:06;;;;;;;3.67;2.53;;;13.10;71.40;;;;;;4867018;29;20063;-79
2021/10/17 04:15:35;;;;;;;2.95;2.22;;;13.10;71.40;;;;;;4881884;29;20076;-79
2021/10/17 04:18:03;;;;;;;3.55;2.63;;;13.10;71.40;;;;;;4866133;29;20033;-79
2021/10/17 04:20:29;;;;;;;3.80;2.45;;;13.10;71.40;;;;;;4897447;29;20060;-79
2021/10/17 04:22:55;;;;;;;3.67;2.60;;;13.10;71.40;;;;;;4866842;29;20044;-79
2021/10/17 04:25:21;;;;;;;4.10;2.50;;;13.10;71.40;;;;;;4882385;29;20048;-79
2021/10/17 04:27:48;;;;;;;4.90;2.42;;;13.10;71.40;;;;;;4866224;29;20033;-79
2021/10/17 04:30:14;;;;;;;4.03;2.47;;;13.10;71.40;;;;;;4881697;29;20504;-80
2021/10/17 04:32:40;;;;;;;3.65;2.40;;;13.10;71.40;;;;;;4881930;29;20107;-80
2021/10/17 04:35:08;;;;;;;4.07;2.40;;;13.10;71.40;;;;;;4881549;29;20044;-79
2021/10/17 04:37:34;;;;;;;4.18;2.60;;;13.10;71.40;;;;;;4870565;29;20025;-80
2021/10/17 04:40:00;;;;;;;2.75;2.28;;;13.10;71.40;;;;;;4870785;29;20044;-79
2021/10/17 04:42:25;;;;;;;4.07;2.60;;;13.10;71.40;;;;;;4870071;29;20092;-79
2021/10/17 04:44:53;;;;;;;4.90;2.40;;;13.00;71.40;;;;;;4886221;29;20060;-79
2021/10/17 04:47:18;;;;;;;3.85;3.05;;;13.00;71.40;;;;;;4903155;29;20084;-79
2021/10/17 04:49:44;;;;;;;5.38;3.10;;;13.00;71.40;;;;;;4869630;29;20482;-79
2021/10/17 04:52:10;;;;;;;2.97;2.25;;;13.00;71.40;;;;;;4869779;29;20088;-80
2021/10/17 04:54:36;;;;;;;3.75;2.58;;;13.00;71.40;;;;;;4885284;29;20037;-79
2021/10/17 04:57:01;;;;;;;2.78;2.25;;;13.10;71.40;;;;;;4900656;29;20033;-78
2021/10/17 04:59:27;;;;;;;4.05;2.78;;;13.00;71.40;;;;;;4884541;29;20040;-79
2021/10/17 05:01:58;;;;;;;3.95;2.63;;;13.00;71.40;;;;;;4886454;29;20032;-79
2021/10/17 05:04:24;;;;;;;3.30;2.53;;;13.00;71.40;;;;;;4869588;29;20127;-79
2021/10/17 05:06:51;;;;;;;4.38;2.85;;;13.00;71.40;;;;;;4884910;29;20048;-79
2021/10/17 05:09:16;;;;;;;4.28;2.83;;;13.00;71.40;;;;;;4869018;29;20454;-78
2021/10/17 05:11:42;;;;;;;4.57;2.88;;;13.00;71.40;;;;;;4885478;29;20083;-79
2021/10/17 05:14:09;;;;;;;4.70;2.90;;;13.00;71.40;;;;;;4869229;29;20136;-79
2021/10/17 05:16:34;;;;;;;3.28;2.40;;;13.00;71.40;;;;;;4900921;29;20455;-79
2021/10/17 05:19:00;;;;;;;2.83;2.42;;;13.00;71.40;;;;;;4868964;29;20441;-78
2021/10/17 05:21:28;;;;;;;4.28;2.85;;;13.00;71.40;;;;;;4900355;29;20044;-79
2021/10/17 05:23:55;;;;;;;3.05;2.38;;;12.90;71.50;;;;;;4869208;29;20043;-79
2021/10/17 05:26:21;;;;;;;4.00;2.58;;;12.90;71.40;;;;;;4869405;29;20060;-79
2021/10/17 05:28:47;;;;;;;5.75;3.05;;;12.90;71.30;;;;;;4884903;29;20037;-79
2021/10/17 05:31:13;;;;;;;4.18;2.63;;;12.90;71.30;;;;;;4915946;29;20052;-78
2021/10/17 05:33:39;;;;;;;3.75;2.67;;;12.90;71.30;;;;;;4899894;29;20028;-78
2021/10/17 05:36:06;;;;;;;3.80;2.70;;;12.90;71.30;;;;;;4884357;29;20048;-79
2021/10/17 05:38:33;;;;;;;4.55;2.97;;;12.90;71.40;;;;;;4899978;29;20035;-78
2021/10/17 05:40:59;;;;;;;3.42;2.55;;;12.90;71.40;;;;;;4868775;29;20037;-79
2021/10/17 05:43:25;;;;;;;3.25;2.40;;;12.90;71.30;;;;;;4868433;29;20032;-79
2021/10/17 05:45:51;;;;;;;3.40;2.67;;;12.90;71.40;;;;;;4884398;29;20060;-79
2021/10/17 05:48:17;;;;;;;4.88;2.70;;;12.90;71.40;;;;;;4899117;29;20389;-79
2021/10/17 05:50:43;;;;;;;3.30;2.70;;;12.90;71.30;;;;;;4883675;29;20128;-78
2021/10/17 05:53:09;;;;;;;3.92;2.78;;;12.90;71.40;;;;;;4899641;29;20029;-79
2021/10/17 05:55:35;;;;;;;4.38;2.70;;;12.80;71.30;;;;;;4868664;29;20048;-80
2021/10/17 05:58:01;;;;;;;4.07;2.92;;;12.80;71.30;;;;;;4899765;29;20028;-80
2021/10/17 06:00:28;;;;;;;4.40;2.90;;;12.80;71.30;;;;;;4868801;29;20045;-79
2021/10/17 06:03:00;;;;;;;3.22;2.38;;;12.80;71.30;;;;;;4869272;29;20033;-79
2021/10/17 06:05:29;;;;;;;4.28;2.70;;;12.80;71.30;;;;;;4883913;29;20045;-80
2021/10/17 06:07:56;;;;;;;3.90;2.75;;;12.80;71.40;;;;;;4883680;29;20042;-79
2021/10/17 06:10:22;;;;;;;4.47;2.67;;;12.80;71.40;;;;;;4868156;29;20037;-80
2021/10/17 06:12:49;;;;;;;4.47;2.90;;;12.80;71.40;;;;;;4883678;29;20055;-79
2021/10/17 06:15:15;;;;;;;4.38;2.95;;;12.80;71.40;;;;;;4883640;29;20048;-79
2021/10/17 06:17:41;;;;;;;4.47;3.05;;;12.80;71.40;;;;;;4883583;29;20033;-79
2021/10/17 06:20:08;;;;;;;4.20;2.65;;;12.80;71.40;;;;;;4867880;29;20112;-80
2021/10/17 06:22:39;;;;;;;5.47;3.35;;;12.80;71.40;;;;;;4869319;29;20084;-79
2021/10/17 06:25:06;;;;;;;4.75;2.60;;;12.80;71.40;;;;;;4867901;29;20036;-79
2021/10/17 06:27:32;;;;;;;4.45;3.13;;;12.70;71.40;;;;;;4867981;29;20056;-79
2021/10/17 06:29:58;;;;;;;4.93;2.83;;;12.70;71.40;;;;;;4867747;29;20059;-79
2021/10/17 06:32:24;;;;;;;4.38;2.67;;;12.70;71.40;;;;;;4867470;29;20032;-80
2021/10/17 06:34:49;;;;;;;4.78;2.90;;;12.70;71.40;;;;;;4883819;29;20044;-79
2021/10/17 06:37:15;;;;;;;4.40;2.75;;;12.70;71.40;;;;;;4868311;29;20405;-80
2021/10/17 06:39:41;;;;;;;3.80;3.00;;;12.70;71.40;;;;;;4883374;29;20043;-79
2021/10/17 06:42:13;;;;;;;4.35;2.65;;;12.70;71.40;;;;;;4884951;29;20029;-79
2021/10/17 06:44:59;;;;;;;4.80;2.95;;;12.70;71.40;;;;;;4866898;29;20501;-79
2021/10/17 06:47:25;;;;;;;4.07;2.50;;;12.70;71.40;;;;;;4883686;29;20382;-80
2021/10/17 06:49:52;;;;;;;4.20;2.88;;;12.70;71.40;;;;;;4898800;29;20116;-87
2021/10/17 06:52:17;;;;;;;3.72;2.75;;;12.60;71.40;;;;;;4868330;29;20440;-80
2021/10/17 06:54:43;;;;;;;3.92;2.67;;;12.70;71.50;;;;;;4867344;29;20037;-79
2021/10/17 06:57:09;;;;;;;3.80;2.60;;;12.70;71.50;;;;;;4898515;29;20063;-79
2021/10/17 06:59:35;;;;;;;3.83;2.70;;;12.70;71.50;;;;;;4881774;29;20040;-80
2021/10/17 07:02:01;;;;;;;3.45;2.55;;;12.60;71.40;;;;;;4882720;29;20035;-79
2021/10/17 07:04:27;;;;;;;2.90;2.53;;;12.60;71.50;;;;;;4868367;29;20040;-79
2021/10/17 07:06:55;;;;;;;4.70;3.05;;;12.60;71.50;;;;;;4882294;29;20041;-79
2021/10/17 07:09:22;;;;;;;4.15;2.75;;;12.60;71.50;;;;;;4867180;29;20390;-78
2021/10/17 07:11:52;;;;;;;3.75;2.78;;;12.70;71.50;;;;;;4883003;29;20036;-78
2021/10/17 07:14:25;;;;;;;4.13;2.67;;;12.60;71.50;;;;;;4868768;29;20480;-79
2021/10/17 07:17:05;;;;;;;4.35;2.97;;;12.60;71.50;;;;;;4869158;29;20048;-79
2021/10/17 07:19:33;;;;;;;3.80;2.75;;;12.60;71.50;;;;;;4868181;29;20492;-79
2021/10/17 07:21:59;;;;;;;3.60;2.55;;;12.60;71.50;;;;;;4867645;29;20040;-79
2021/10/17 07:24:26;;;;;;;4.05;2.90;;;12.60;71.60;;;;;;4914694;29;20037;-78
2021/10/17 07:26:52;;;;;;;5.45;2.75;;;12.70;71.60;;;;;;4883146;29;20386;-79
2021/10/17 07:29:18;;;;;;;4.82;2.97;;;12.70;72.30;;;;;;4882289;29;20103;-79
2021/10/17 07:31:44;;;;;;;3.60;2.53;;;12.70;71.70;;;;;;4898971;29;20040;-78
2021/10/17 07:34:10;;;;;;;4.25;2.80;;;12.70;71.70;;;;;;4882080;29;20033;-78
2021/10/17 07:36:36;;;;;;;4.07;2.70;;;12.70;71.70;;;;;;4866577;29;20127;-78
2021/10/17 07:39:10;;;;;;;4.18;2.90;;;12.70;71.70;;;;;;4898377;29;20040;-78
2021/10/17 07:41:39;;;;;;;4.25;2.60;;;12.70;71.70;;;;;;4867455;29;20044;-78
2021/10/17 07:44:06;;;;;;;4.38;2.92;;;12.70;71.70;;;;;;4866933;29;20025;-79
2021/10/17 07:46:33;;;;;;;4.45;2.88;;;12.70;71.70;;;;;;4866677;29;20033;-79
2021/10/17 07:49:03;;;;;;;3.38;2.67;;;12.70;71.70;;;;;;4882926;29;20363;-78
2021/10/17 07:51:29;;;;;;;4.00;2.88;;;12.70;71.80;;;;;;4882100;29;20124;-78
2021/10/17 07:53:55;;;;;;;4.22;2.92;;;12.70;71.80;;;;;;4867194;29;20048;-79
2021/10/17 07:56:26;;;;;;;4.47;2.88;;;12.70;71.80;;;;;;4882478;29;20526;-79
2021/10/17 07:58:52;;;;;;;3.95;3.03;;;12.70;71.80;;;;;;4866647;29;20040;-78
2021/10/17 08:01:22;;;;;;;4.03;3.05;;;12.70;71.80;;;;;;4881752;29;20032;-78
2021/10/17 08:04:07;;;;;;;3.55;2.75;;;12.70;71.80;;;;;;4884465;29;20088;-78
2021/10/17 08:07:03;;;;;;;5.65;3.13;;;12.70;71.80;;;;;;4900977;29;20044;-78
2021/10/17 08:09:29;;;;;;;4.50;2.78;;;12.70;71.80;;;;;;4881809;29;20063;-79
2021/10/17 08:11:55;;;;;;;4.68;2.80;;;12.70;71.90;;;;;;4866309;29;20478;-79
2021/10/17 08:14:20;;;;;;;3.88;2.45;;;12.70;71.90;;;;;;4881930;29;20123;-78
2021/10/17 08:16:51;;;;;;;4.60;2.83;;;12.80;72.00;;;;;;4881848;29;20120;-78
2021/10/17 08:19:17;;;;;;;3.53;2.72;;;12.80;72.00;;;;;;4882235;29;20067;-79
2021/10/17 08:21:43;;;;;;;3.63;2.70;;;12.80;72.00;;;;;;4850956;29;20072;-79
2021/10/17 08:24:10;;;;;;;3.70;2.80;;;12.80;72.00;;;;;;4866272;29;20084;-79
2021/10/17 08:26:41;;;;;;;4.07;2.90;;;12.80;72.00;;;;;;4882375;29;20100;-78
2021/10/17 08:29:11;;;;;;;3.50;2.50;;;12.80;72.00;;;;;;4881891;29;20135;-82
2021/10/17 08:31:38;;;;;;;3.10;2.30;;;12.90;72.10;;;;;;4866799;29;20040;-80
2021/10/17 08:34:08;;;;;;;4.07;2.90;;;12.90;72.00;;;;;;4867525;29;20052;-81
2021/10/17 08:36:34;;;;;;;5.47;2.92;;;12.90;72.10;;;;;;4898392;29;20040;-79
2021/10/17 08:39:02;;;;;;;4.40;2.72;;;12.90;72.10;;;;;;4897279;29;20363;-79
2021/10/17 08:41:40;;;;;;;4.05;2.78;;;12.90;72.10;;;;;;4867837;29;20040;-80
2021/10/17 08:44:12;;;;;;;3.22;2.40;;;13.00;72.10;;;;;;4881737;29;20065;-81
2021/10/17 08:46:50;;;;;;;3.63;2.40;;;13.00;72.10;;;;;;4898843;29;20079;-79
2021/10/17 08:49:22;;;;;;;2.72;2.28;;;13.00;72.10;;;;;;4881558;29;20049;-80
2021/10/17 08:51:48;;;;;;;3.40;2.42;;;13.00;72.10;;;;;;4881754;29;20033;-79
2021/10/17 08:54:14;;;;;;;3.25;2.35;;;13.00;72.00;;;;;;4866215;29;20377;-80
2021/10/17 08:57:00;;;;;;;3.47;2.55;;;13.10;72.10;;;;;;4884045;29;20032;-79
2021/10/17 08:59:28;;;;;;;3.75;2.35;;;13.10;72.00;;;;;;4882035;29;20355;-80
2021/10/17 09:01:56;;;;;;;3.55;2.67;;;13.10;72.00;;;;;;4881910;29;20040;-81
2021/10/17 09:04:28;;;;;;;3.90;2.72;;;13.10;72.00;;;;;;4899125;29;20084;-79
2021/10/17 09:07:16;;;;;;;3.33;2.30;;;13.10;72.00;;;;;;4897583;29;20126;-80
2021/10/17 09:10:07;;;;;;;2.92;2.30;;;13.10;72.10;;;;;;4881661;29;20036;-82
2021/10/17 09:12:34;;;;;;;3.42;2.40;;;13.20;72.10;;;;;;4881898;29;20028;-81
2021/10/17 09:15:27;;;;;;;3.13;2.33;;;13.20;71.90;;;;;;4898608;29;20052;-80
2021/10/17 09:18:23;;;;;;;3.87;2.60;;;13.20;72.10;;;;;;4881254;29;20033;-80
2021/10/17 09:21:03;;;;;;;3.63;2.33;;;13.20;72.00;;;;;;4881092;29;20296;-81
2021/10/17 09:23:29;;;;;;;3.03;2.35;;;13.30;71.90;;;;;;4884146;29;20394;-79
2021/10/17 09:25:56;;;;;;;2.78;2.40;;;13.30;72.00;;;;;;4901235;29;20021;-80
2021/10/17 09:28:27;;;;;;;4.05;2.63;;;13.30;72.00;;;;;;4884756;29;20038;-81
2021/10/17 09:31:23;;;;;;;3.17;2.50;;;13.40;72.00;;;;;;4884594;29;20041;-79
2021/10/17 09:33:53;;;;;;;4.03;2.60;;;13.40;72.00;;;;;;4897541;29;20066;-78
2021/10/17 09:36:23;;;;;;;3.92;2.33;;;13.40;72.00;;;;;;4884563;29;20040;-78
2021/10/17 09:39:16;;;;;;;3.38;2.35;;;13.40;71.90;;;;;;4901608;29;20107;-77
2021/10/17 09:42:02;;;;;;;3.67;2.35;;;13.40;71.90;;;;;;4885240;29;20041;-78
2021/10/17 09:44:41;;;;;;;3.08;2.45;;;13.50;71.90;;;;;;4884075;29;20035;-79
2021/10/17 09:47:07;;;;;;;3.55;2.28;;;13.50;72.00;;;;;;4900693;29;20029;-83
2021/10/17 09:49:33;;;;;;;3.60;2.80;;;13.50;71.90;;;;;;4868871;29;20024;-78
2021/10/17 09:52:19;;;;;;;3.60;2.75;;;13.50;72.00;;;;;;4869058;29;20044;-79
2021/10/17 09:54:47;;;;;;;3.83;2.42;;;13.60;72.10;;;;;;4884059;29;20509;-79
2021/10/17 09:57:14;;;;;;;4.18;2.90;;;13.60;71.90;;;;;;4900782;29;20029;-79
2021/10/17 09:59:40;;;;;;;4.15;2.85;;;13.60;71.90;;;;;;4901056;29;20036;-81
2021/10/17 10:02:12;;;;;;;3.15;2.42;;;13.70;71.90;;;;;;4900396;29;20486;-80
2021/10/17 10:04:39;;;;;;;4.40;2.50;;;13.70;71.90;;;;;;4884472;29;20029;-79
2021/10/17 10:07:10;;;;;;;2.67;2.17;;;13.80;71.80;;;;;;4883836;29;20025;-79
2021/10/17 10:09:37;;;;;;;3.08;2.50;;;13.80;71.80;;;;;;4884889;29;20067;-81
2021/10/17 10:12:04;;;;;;;3.58;2.40;;;13.80;71.70;;;;;;4900873;29;20036;-84
2021/10/17 10:14:33;;;;;;;6.43;2.67;;;13.80;71.70;;;;;;4885115;29;20033;-82
2021/10/17 10:17:02;;;;;;;4.25;2.70;;;13.90;71.70;;;;;;4883851;29;20028;-81
2021/10/17 10:19:29;;;;;;;4.72;2.72;;;13.90;71.70;;;;;;4868560;29;20557;-82
2021/10/17 10:21:56;;;;;;;4.78;3.33;;;13.90;71.60;;;;;;4883767;29;20036;-79
2021/10/17 10:24:24;;;;;;;3.80;2.63;;;14.00;71.60;;;;;;4899484;29;20032;-80
2021/10/17 10:26:53;;;;;;;4.60;3.00;;;14.00;71.60;;;;;;4900156;29;20485;-82
2021/10/17 10:29:28;;;;;;;4.72;3.00;;;14.00;71.50;;;;;;4868086;29;20044;-82
2021/10/17 10:31:56;;;;;;;4.13;2.70;;;14.10;71.50;;;;;;4883740;29;20040;-81
2021/10/17 10:34:22;;;;;;;4.30;2.83;;;14.10;71.40;;;;;;4869045;29;20096;-81
2021/10/17 10:36:53;;;;;;;4.00;2.80;;;14.10;71.40;;;;;;4884249;29;20037;-83
2021/10/17 10:39:23;;;;;;;3.88;2.67;;;14.20;71.50;;;;;;4883179;29;20469;-82
2021/10/17 10:42:01;;;;;;;3.72;2.75;;;14.20;71.40;;;;;;4900164;29;20465;-81
2021/10/17 10:44:40;;;;;;;3.83;2.70;;;14.20;71.40;;;;;;4883678;29;20068;-81
2021/10/17 10:47:26;;;;;;;3.90;2.90;;;14.20;71.40;;;;;;4883568;29;20044;-82
2021/10/17 10:49:54;;;;;;;4.25;2.60;;;14.30;71.40;;;;;;4914530;29;20039;-82
2021/10/17 10:52:29;;;;;;;6.15;3.55;;;14.30;71.30;;;;;;4883467;29;20087;-86
2021/10/17 10:54:57;;;;;;;3.75;2.85;;;14.30;71.30;;;;;;4883569;29;20039;-82
2021/10/17 10:57:24;;;;;;;3.47;2.55;;;14.40;71.20;;;;;;4868561;29;20024;-83
2021/10/17 10:59:59;;;;;;;4.00;2.85;;;14.40;71.20;;;;;;4883642;29;20072;-83
2021/10/17 11:02:25;;;;;;;4.10;2.75;;;14.40;71.20;;;;;;4868722;29;20091;-84
2021/10/17 11:04:51;;;;;;;3.80;2.83;;;14.50;71.20;;;;;;4883306;29;20048;-83
2021/10/17 11:07:20;;;;;;;4.53;2.72;;;14.50;71.20;;;;;;4883304;29;20397;-83
2021/10/17 11:09:48;;;;;;;3.53;2.50;;;14.50;71.20;;;;;;4868062;29;20107;-83
2021/10/17 11:12:39;;;;;;;4.30;2.60;;;14.60;71.30;;;;;;4883355;29;20033;-83
2021/10/17 11:15:17;;;;;;;5.25;3.10;;;14.60;71.30;;;;;;4899839;29;20037;-84
2021/10/17 11:17:54;;;;;;;4.78;2.90;;;14.60;71.20;;;;;;4899904;29;20040;-83
2021/10/17 11:20:22;;;;;;;4.25;2.67;;;14.70;71.20;;;;;;4882787;29;20083;-83
2021/10/17 11:22:50;;;;;;;3.25;2.40;;;14.60;71.10;;;;;;4899438;29;20040;-83
2021/10/17 11:25:18;;;;;;;3.72;2.78;;;14.70;71.10;;;;;;4883712;29;20025;-82
2021/10/17 11:27:45;;;;;;;4.82;3.13;;;14.70;71.10;;;;;;4867443;29;20037;-84
2021/10/17 11:30:25;;;;;;;4.13;2.88;;;14.70;71.20;;;;;;4867481;29;20047;-84
2021/10/17 11:32:52;;;;;;;4.45;2.88;;;14.80;71.40;;;;;;4900106;29;20080;-81
2021/10/17 11:35:27;;;;;;;4.18;3.05;;;14.80;71.20;;;;;;4867135;29;20119;-82
2021/10/17 11:37:55;;;;;;;4.20;2.80;;;14.90;71.20;;;;;;4899485;29;20038;-82
2021/10/17 11:40:23;;;;;;;4.47;3.03;;;14.90;71.10;;;;;;4867140;29;20032;-81
2021/10/17 11:42:50;;;;;;;4.13;2.97;;;15.00;71.00;;;;;;4898159;29;20438;-81
2021/10/17 11:45:23;;;;;;;4.22;2.95;;;15.00;71.00;;;;;;4882336;29;20153;-82
2021/10/17 11:47:51;;;;;;;5.20;2.92;;;15.00;70.90;;;;;;4900715;29;20035;-82
2021/10/17 11:50:31;;;;;;;4.45;2.72;;;15.10;70.90;;;;;;4900884;29;20036;-82
2021/10/17 11:53:06;;;;;;;3.55;2.60;;;15.10;70.90;;;;;;4883412;29;20032;-81
2021/10/17 11:55:47;;;;;;;3.42;2.55;;;15.10;70.90;;;;;;4868711;29;20064;-81
2021/10/17 11:58:15;;;;;;;3.85;2.78;;;15.10;70.80;;;;;;4883800;29;20024;-82
2021/10/17 12:00:44;;;;;;;4.18;2.85;;;15.20;70.80;;;;;;4884231;29;20025;-81
2021/10/17 12:03:11;;;;;;;3.50;2.75;;;15.20;70.80;;;;;;4884404;29;20032;-81
2021/10/17 12:05:43;;;;;;;4.32;3.08;;;15.20;70.70;;;;;;4883753;29;20088;-81
2021/10/17 12:08:22;;;;;;;3.67;2.67;;;15.20;70.70;;;;;;4900919;29;20025;-81
2021/10/17 12:10:56;;;;;;;4.07;2.83;;;15.30;70.70;;;;;;4900059;29;20040;-81
2021/10/17 12:13:22;;;;;;;4.13;2.65;;;15.30;70.70;;;;;;4882245;29;20104;-81
2021/10/17 12:15:49;;;;;;;3.75;2.80;;;15.30;70.60;;;;;;4882919;29;20474;-81
2021/10/17 12:18:15;;;;;;;3.45;2.55;;;15.40;70.60;;;;;;4883129;29;20047;-82
2021/10/17 12:20:41;;;;;;;3.72;2.65;;;15.40;70.70;;;;;;4882391;29;20064;-83
2021/10/17 12:23:08;;;;;;;4.95;2.72;;;15.40;70.70;;;;;;4882507;29;20089;-85
2021/10/17 12:25:56;;;;;;;4.03;2.60;;;15.40;70.60;;;;;;4871380;29;20090;-83
2021/10/17 12:28:21;;;;;;;3.85;2.50;;;15.40;70.60;;;;;;4868266;29;20037;-83
2021/10/17 12:30:50;;;;;;;4.13;2.80;;;15.50;70.60;;;;;;4867680;29;20549;-85
2021/10/17 12:33:35;;;;;;;4.30;3.00;;;15.50;70.60;;;;;;4898532;29;20041;-83
2021/10/17 12:36:02;;;;;;;3.25;2.30;;;15.50;70.60;;;;;;4882513;29;20061;-84
2021/10/17 12:38:30;;;;;;;5.38;2.92;;;15.50;70.40;;;;;;4866975;29;20104;-83
2021/10/17 12:40:58;;;;;;;3.05;2.40;;;15.50;70.50;;;;;;4881972;29;20537;-82
2021/10/17 12:43:33;;;;;;;3.63;2.50;;;15.50;70.40;;;;;;4867293;29;20047;-83
2021/10/17 12:46:20;;;;;;;3.88;2.47;;;15.60;70.50;;;;;;4881639;29;20036;-83
2021/10/17 12:48:49;;;;;;;3.67;2.47;;;15.60;70.50;;;;;;4882131;29;20070;-82
2021/10/17 12:51:30;;;;;;;3.35;2.42;;;15.60;70.40;;;;;;4881739;29;20032;-84
2021/10/17 12:54:12;;;;;;;3.78;2.33;;;15.60;70.50;;;;;;4866583;29;20040;-83
2021/10/17 12:57:00;;;;;;;3.38;2.55;;;15.60;70.50;;;;;;4898701;29;20028;-83